Cochise — WDD8952 — position and weather

sailwx.info

Track history (hours):
 
Tides and Currents Weather Stations Pressure Air Temp Water Temp Dewpoint Dewpoint Depression Visibility Wind Speed Wind Dir Waves Ship Positions

Cochise

Owner: Sause Bros, Coos Bay, OR. More information available from US FCC via Universal Licensing System and Coast Guard Vessel Documentation Center.

Last reported at 2014-Nov-27 17:33 UTC. Time now 2014-Nov-27 18:17 UTC.
Position N 33°55' W 118°27'.

Length 32 m; draft 4.5 m.

Type: Tow > 200 m length. MMSI: 367304990.

Date/timePositionNaut miles runAvg speedWind from/ knotsBaromVisibWave heightAir tempDewpointWater temp
2014-Nov-27 17:33N 33°55' W 118°27'0 0.0
2014-Nov-27 16:33N 33°55' W 118°27'10 4.2
2014-Nov-27 14:08N 33°45' W 118°28'610.0
2014-Nov-27 13:33N 33°40' W 118°23'8 8.0
2014-Nov-27 12:34N 33°39' W 118°13'6 5.6
2014-Nov-27 11:34N 33°45' W 118°13'1 1.3
2014-Nov-27 10:33N 33°46' W 118°13'0 0.1
2014-Nov-27 09:33N 33°46' W 118°13'0 0.1
2014-Nov-27 08:34N 33°46' W 118°13'0 0.1
2014-Nov-27 07:34N 33°46' W 118°13'0 0.0
2014-Nov-27 06:34N 33°46' W 118°13'0 0.0
2014-Nov-27 05:33N 33°46' W 118°13'0 0.0
2014-Nov-27 04:33N 33°46' W 118°13'0 0.0
2014-Nov-27 03:33N 33°46' W 118°13'0 0.0
2014-Nov-27 02:33N 33°46' W 118°13'0 0.0
2014-Nov-27 01:34N 33°46' W 118°13'0 0.0
2014-Nov-27 00:34N 33°46' W 118°13'0 0.0
2014-Nov-26 23:33N 33°46' W 118°13'0 0.0
2014-Nov-26 22:34N 33°46' W 118°13'0 0.0
2014-Nov-26 21:33N 33°46' W 118°13'0 0.0
2014-Nov-26 20:33N 33°46' W 118°13'0 0.0
2014-Nov-26 19:33N 33°46' W 118°13'0 0.1
2014-Nov-26 18:33N 33°46' W 118°13'0 0.0
2014-Nov-26 17:33N 33°46' W 118°13'0 0.0
2014-Nov-26 16:33N 33°46' W 118°13'0 0.1
2014-Nov-26 15:29N 33°46' W 118°13'0 0.0
2014-Nov-26 14:32N 33°46' W 118°13'0 0.0
2014-Nov-26 13:32N 33°46' W 118°13'0 0.0
2014-Nov-26 12:32N 33°46' W 118°13'0 0.0
2014-Nov-26 11:32N 33°46' W 118°13'0 0.0
2014-Nov-26 10:23N 33°46' W 118°13'0 0.0
2014-Nov-26 09:32N 33°46' W 118°13'0 0.0
2014-Nov-26 08:32N 33°46' W 118°13'0 0.0
2014-Nov-26 07:32N 33°46' W 118°13'0 0.0
2014-Nov-26 06:32N 33°46' W 118°13'0 0.0
2014-Nov-26 05:32N 33°46' W 118°13'0 0.0
2014-Nov-26 04:32N 33°46' W 118°13'0 0.2
2014-Nov-26 03:33N 33°46' W 118°13'4 3.5
2014-Nov-26 02:33N 33°44' W 118°16'2 1.8
2014-Nov-26 01:33N 33°45' W 118°17'0 0.1
2014-Nov-26 00:33N 33°45' W 118°17'0 0.0
2014-Nov-25 23:33N 33°45' W 118°17'0 0.0
2014-Nov-25 22:09N 33°45' W 118°17'0 0.0
2014-Nov-25 21:27N 33°45' W 118°17'0 0.0
2014-Nov-25 20:33N 33°45' W 118°17'0 0.0
2014-Nov-25 19:21N 33°45' W 118°17'0 0.0
2014-Nov-25 18:27N 33°45' W 118°17'0 0.0
2014-Nov-25 17:33N 33°45' W 118°17'0 0.0
2014-Nov-25 16:09N 33°45' W 118°17'0 0.0
2014-Nov-25 15:21N 33°45' W 118°17'11 2.8
2014-Nov-25 11:21N 33°34' W 118°17'5 6.0
2014-Nov-25 10:33N 33°34' W 118°23'6 5.8
2014-Nov-25 09:27N 33°37' W 118°29'14 6.4
2014-Nov-25 07:20N 33°39' W 118°45'5 6.8
2014-Nov-25 06:32N 33°39' W 118°52'23 6.8
2014-Nov-25 03:12N 33°38' W 119°19'6 6.8
2014-Nov-25 02:19N 33°38' W 119°26'7 6.9
2014-Nov-25 01:15N 33°38' W 119°35'6 6.7
2014-Nov-25 00:26N 33°37' W 119°42'8 7.3
2014-Nov-24 23:21N 33°37' W 119°51'40 6.9
2014-Nov-24 17:33N 33°40' W 120°39'21 6.5
2014-Nov-24 14:18N 33°54' W 120°58'5 6.8
2014-Nov-24 13:32N 33°58' W 121°01'7 7.0
2014-Nov-24 12:33N 34°05' W 121°05'7 7.5
2014-Nov-24 11:33N 34°11' W 121°09'7 7.3
2014-Nov-24 10:33N 34°18' W 121°13'14 7.0
2014-Nov-24 08:33N 34°30' W 121°20'9 7.5
2014-Nov-24 07:20N 34°39' W 121°25'7 7.8
2014-Nov-24 06:28N 34°45' W 121°29'7 7.5
2014-Nov-24 05:33N 34°51' W 121°33'11 7.8
2014-Nov-24 04:10N 35°00' W 121°39'5 7.6
2014-Nov-24 03:33N 35°05' W 121°41'8 7.6
2014-Nov-24 02:32N 35°11' W 121°45'7 7.4
2014-Nov-24 01:33N 35°18' W 121°49'7 7.4
2014-Nov-24 00:33N 35°25' W 121°53'8 7.9
2014-Nov-23 23:33N 35°32' W 121°58'8 8.4
2014-Nov-23 22:33N 35°39' W 122°02'9 8.6
2014-Nov-23 21:33N 35°47' W 122°07'9 8.6
2014-Nov-23 20:33N 35°54' W 122°12'9 8.6
2014-Nov-23 19:33N 36°02' W 122°17'8 8.3
2014-Nov-23 18:33N 36°10' W 122°21'8 8.2
2014-Nov-23 17:33N 36°17' W 122°25'8 8.0
2014-Nov-23 16:33N 36°24' W 122°30'8 8.2
2014-Nov-23 15:33N 36°31' W 122°35'8 7.8
2014-Nov-23 14:33N 36°38' W 122°40'9 8.7
2014-Nov-23 13:31N 36°46' W 122°45'8 8.8
2014-Nov-23 12:33N 36°54' W 122°49'10 9.2
2014-Nov-23 11:25N 37°03' W 122°55'8 9.3
2014-Nov-23 10:33N 37°10' W 122°59'9 8.7
2014-Nov-23 09:32N 37°18' W 123°04'9 8.8
2014-Nov-23 08:32N 37°26' W 123°09'9 8.2
2014-Nov-23 07:28N 37°34' W 123°04'11 8.4
2014-Nov-23 06:08N 37°40' W 122°52'5 8.2
2014-Nov-23 05:33N 37°43' W 122°47'8 8.2
2014-Nov-23 04:33N 37°46' W 122°37'8 8.0
2014-Nov-23 03:33N 37°49' W 122°28'6 5.9
2014-Nov-23 02:33N 37°55' W 122°26'1 1.0
2014-Nov-23 01:33N 37°55' W 122°24'0 0.1
2014-Nov-23 00:33N 37°55' W 122°25'0 0.0
2014-Nov-22 23:33N 37°55' W 122°25'0 0.0
2014-Nov-22 22:33N 37°55' W 122°25'0 0.0
2014-Nov-22 21:33N 37°55' W 122°25'0 0.0
2014-Nov-22 20:33N 37°55' W 122°25'0 0.0
2014-Nov-22 19:33N 37°55' W 122°25'0 0.0
2014-Nov-22 18:33N 37°55' W 122°25'0 0.0
2014-Nov-22 17:33N 37°55' W 122°25'0 0.0
2014-Nov-22 16:33N 37°55' W 122°25'0 0.0
2014-Nov-22 15:33N 37°55' W 122°25'0 0.0
2014-Nov-22 14:33N 37°55' W 122°25'0 0.0
2014-Nov-22 13:33N 37°55' W 122°25'0 0.0
2014-Nov-22 12:33N 37°55' W 122°25'0 0.0
2014-Nov-22 11:33N 37°55' W 122°25'0 0.0
2014-Nov-22 10:33N 37°55' W 122°25'0 0.0
2014-Nov-22 09:33N 37°55' W 122°25'0 0.0
2014-Nov-22 08:33N 37°55' W 122°25'0 0.0
2014-Nov-22 07:33N 37°55' W 122°25'0 0.0
2014-Nov-22 06:33N 37°55' W 122°25'0 0.0
2014-Nov-22 05:33N 37°55' W 122°25'0 0.0
2014-Nov-22 04:33N 37°55' W 122°25'0 0.3
2014-Nov-22 03:33N 37°55' W 122°25'1 1.1
2014-Nov-22 02:34N 37°55' W 122°26'6 5.9
2014-Nov-22 01:33N 37°49' W 122°27'8 7.8
2014-Nov-22 00:33N 37°46' W 122°36'8 8.0
2014-Nov-21 23:33N 37°42' W 122°45'7 7.0
2014-Nov-21 22:33N 37°38' W 122°52'8 8.1
2014-Nov-21 21:33N 37°33' W 123°00'28 9.0
2014-Nov-21 18:25N 37°06' W 122°53'56 9.3
2014-Nov-21 12:23N 36°14' W 122°27'8 9.3
2014-Nov-21 11:33N 36°07' W 122°23'12 9.3
2014-Nov-21 10:15N 35°57' W 122°14'217 8.4
2014-Nov-20 08:32N 33°49' W 118°40'9 9.2
2014-Nov-20 07:33N 33°52' W 118°30'3 3.1
2014-Nov-20 06:33N 33°55' W 118°27'0 0.0
2014-Nov-20 05:33N 33°55' W 118°27'0 0.0
2014-Nov-20 04:33N 33°55' W 118°27'0 0.0
2014-Nov-20 03:33N 33°55' W 118°27'0 0.0
2014-Nov-20 02:33N 33°55' W 118°27'0 0.0
2014-Nov-20 01:33N 33°55' W 118°27'0 0.0
2014-Nov-20 00:34N 33°55' W 118°27'0 0.0
2014-Nov-19 23:33N 33°55' W 118°27'0 0.0
2014-Nov-19 22:33N 33°55' W 118°27'0 0.1
2014-Nov-19 21:34N 33°55' W 118°27'6 5.3
2014-Nov-19 20:31N 33°50' W 118°30'7 6.6
2014-Nov-19 19:29N 33°44' W 118°26'9 9.5
2014-Nov-19 18:33N 33°39' W 118°17'7 6.8
2014-Nov-19 17:33N 33°44' W 118°11'2 1.2
2014-Nov-19 16:04N 33°44' W 118°13'0 0.0
2014-Nov-19 15:25N 33°44' W 118°13'0 0.0
2014-Nov-19 14:28N 33°44' W 118°13'0 0.0
2014-Nov-19 13:22N 33°44' W 118°13'0 0.0
2014-Nov-19 12:28N 33°44' W 118°13'0 0.0
2014-Nov-19 11:31N 33°44' W 118°13'0 0.0
2014-Nov-19 10:31N 33°44' W 118°13'0 0.0
2014-Nov-19 09:31N 33°44' W 118°13'0 0.0
2014-Nov-19 08:31N 33°44' W 118°13'0 0.1
2014-Nov-19 07:31N 33°44' W 118°13'0 0.1
2014-Nov-19 06:31N 33°44' W 118°13'0 0.0
2014-Nov-19 05:31N 33°44' W 118°13'0 0.1
2014-Nov-19 04:31N 33°44' W 118°13'0 0.0
2014-Nov-19 03:31N 33°44' W 118°13'0 0.0
2014-Nov-19 02:31N 33°44' W 118°13'0 0.1
2014-Nov-19 01:31N 33°44' W 118°13'0 0.0
2014-Nov-19 00:31N 33°44' W 118°13'0 0.0
2014-Nov-18 23:28N 33°44' W 118°13'0 0.0
2014-Nov-18 22:22N 33°44' W 118°13'0 0.0
2014-Nov-18 21:28N 33°44' W 118°13'0 0.0
2014-Nov-18 20:31N 33°44' W 118°13'0 0.1
2014-Nov-18 19:31N 33°44' W 118°13'0 0.0
2014-Nov-18 18:31N 33°44' W 118°13'0 0.0
2014-Nov-18 17:31N 33°44' W 118°13'0 0.0
2014-Nov-18 16:31N 33°44' W 118°13'0 0.0
2014-Nov-18 15:31N 33°44' W 118°13'0 0.0
2014-Nov-18 14:31N 33°44' W 118°13'0 0.0
2014-Nov-18 13:31N 33°44' W 118°13'0 0.0
2014-Nov-18 12:31N 33°44' W 118°13'0 0.0
2014-Nov-18 11:31N 33°44' W 118°13'0 0.0
2014-Nov-18 10:31N 33°44' W 118°13'0 0.0
2014-Nov-18 09:31N 33°44' W 118°13'0 0.0
2014-Nov-18 08:31N 33°44' W 118°13'0 0.0
2014-Nov-18 07:31N 33°44' W 118°13'0 0.0
2014-Nov-18 06:31N 33°44' W 118°13'0 0.0
2014-Nov-18 05:31N 33°44' W 118°13'0 0.0
2014-Nov-18 04:31N 33°44' W 118°13'0 0.1
2014-Nov-18 03:31N 33°44' W 118°13'0 0.0
2014-Nov-18 02:31N 33°44' W 118°13'0 0.0
2014-Nov-18 01:31N 33°44' W 118°13'0 0.0
2014-Nov-18 00:28N 33°44' W 118°13'0 0.0
2014-Nov-17 23:28N 33°44' W 118°13'0 0.2
2014-Nov-17 21:33N 33°44' W 118°13'6 5.6
2014-Nov-17 20:33N 33°39' W 118°15'9 8.5
2014-Nov-17 19:33N 33°42' W 118°24'  
Track history (hours):
 
Tides and Currents Weather Stations Pressure Air Temp Water Temp Dewpoint Dewpoint Depression Visibility Wind Speed Wind Dir Waves Ship Positions

Cochise

Owner: Sause Bros, Coos Bay, OR. More information available from US FCC via Universal Licensing System and Coast Guard Vessel Documentation Center.

Last reported at 2014-Nov-27 17:33 UTC. Time now 2014-Nov-27 18:17 UTC.
Position N 33°55' W 118°27'.

Length 32 m; draft 4.5 m.

Type: Tow > 200 m length. MMSI: 367304990.

Date/timePositionNaut miles runAvg speedWind from/ knotsBaromVisibWave heightAir tempDewpointWater temp
2014-Nov-27 17:33N 33°55' W 118°27'0 0.0
2014-Nov-27 16:33N 33°55' W 118°27'10 4.2
2014-Nov-27 14:08N 33°45' W 118°28'610.0
2014-Nov-27 13:33N 33°40' W 118°23'8 8.0
2014-Nov-27 12:34N 33°39' W 118°13'6 5.6
2014-Nov-27 11:34N 33°45' W 118°13'1 1.3
2014-Nov-27 10:33N 33°46' W 118°13'0 0.1
2014-Nov-27 09:33N 33°46' W 118°13'0 0.1
2014-Nov-27 08:34N 33°46' W 118°13'0 0.1
2014-Nov-27 07:34N 33°46' W 118°13'0 0.0
2014-Nov-27 06:34N 33°46' W 118°13'0 0.0
2014-Nov-27 05:33N 33°46' W 118°13'0 0.0
2014-Nov-27 04:33N 33°46' W 118°13'0 0.0
2014-Nov-27 03:33N 33°46' W 118°13'0 0.0
2014-Nov-27 02:33N 33°46' W 118°13'0 0.0
2014-Nov-27 01:34N 33°46' W 118°13'0 0.0
2014-Nov-27 00:34N 33°46' W 118°13'0 0.0
2014-Nov-26 23:33N 33°46' W 118°13'0 0.0
2014-Nov-26 22:34N 33°46' W 118°13'0 0.0
2014-Nov-26 21:33N 33°46' W 118°13'0 0.0
2014-Nov-26 20:33N 33°46' W 118°13'0 0.0
2014-Nov-26 19:33N 33°46' W 118°13'0 0.1
2014-Nov-26 18:33N 33°46' W 118°13'0 0.0
2014-Nov-26 17:33N 33°46' W 118°13'0 0.0
2014-Nov-26 16:33N 33°46' W 118°13'0 0.1
2014-Nov-26 15:29N 33°46' W 118°13'0 0.0
2014-Nov-26 14:32N 33°46' W 118°13'0 0.0
2014-Nov-26 13:32N 33°46' W 118°13'0 0.0
2014-Nov-26 12:32N 33°46' W 118°13'0 0.0
2014-Nov-26 11:32N 33°46' W 118°13'0 0.0
2014-Nov-26 10:23N 33°46' W 118°13'0 0.0
2014-Nov-26 09:32N 33°46' W 118°13'0 0.0
2014-Nov-26 08:32N 33°46' W 118°13'0 0.0
2014-Nov-26 07:32N 33°46' W 118°13'0 0.0
2014-Nov-26 06:32N 33°46' W 118°13'0 0.0
2014-Nov-26 05:32N 33°46' W 118°13'0 0.0
2014-Nov-26 04:32N 33°46' W 118°13'0 0.2
2014-Nov-26 03:33N 33°46' W 118°13'4 3.5
2014-Nov-26 02:33N 33°44' W 118°16'2 1.8
2014-Nov-26 01:33N 33°45' W 118°17'0 0.1
2014-Nov-26 00:33N 33°45' W 118°17'0 0.0
2014-Nov-25 23:33N 33°45' W 118°17'0 0.0
2014-Nov-25 22:09N 33°45' W 118°17'0 0.0
2014-Nov-25 21:27N 33°45' W 118°17'0 0.0
2014-Nov-25 20:33N 33°45' W 118°17'0 0.0
2014-Nov-25 19:21N 33°45' W 118°17'0 0.0
2014-Nov-25 18:27N 33°45' W 118°17'0 0.0
2014-Nov-25 17:33N 33°45' W 118°17'0 0.0
2014-Nov-25 16:09N 33°45' W 118°17'0 0.0
2014-Nov-25 15:21N 33°45' W 118°17'11 2.8
2014-Nov-25 11:21N 33°34' W 118°17'5 6.0
2014-Nov-25 10:33N 33°34' W 118°23'6 5.8
2014-Nov-25 09:27N 33°37' W 118°29'14 6.4
2014-Nov-25 07:20N 33°39' W 118°45'5 6.8
2014-Nov-25 06:32N 33°39' W 118°52'23 6.8
2014-Nov-25 03:12N 33°38' W 119°19'6 6.8
2014-Nov-25 02:19N 33°38' W 119°26'7 6.9
2014-Nov-25 01:15N 33°38' W 119°35'6 6.7
2014-Nov-25 00:26N 33°37' W 119°42'8 7.3
2014-Nov-24 23:21N 33°37' W 119°51'40 6.9
2014-Nov-24 17:33N 33°40' W 120°39'21 6.5
2014-Nov-24 14:18N 33°54' W 120°58'5 6.8
2014-Nov-24 13:32N 33°58' W 121°01'7 7.0
2014-Nov-24 12:33N 34°05' W 121°05'7 7.5
2014-Nov-24 11:33N 34°11' W 121°09'7 7.3
2014-Nov-24 10:33N 34°18' W 121°13'14 7.0
2014-Nov-24 08:33N 34°30' W 121°20'9 7.5
2014-Nov-24 07:20N 34°39' W 121°25'7 7.8
2014-Nov-24 06:28N 34°45' W 121°29'7 7.5
2014-Nov-24 05:33N 34°51' W 121°33'11 7.8
2014-Nov-24 04:10N 35°00' W 121°39'5 7.6
2014-Nov-24 03:33N 35°05' W 121°41'8 7.6
2014-Nov-24 02:32N 35°11' W 121°45'7 7.4
2014-Nov-24 01:33N 35°18' W 121°49'7 7.4
2014-Nov-24 00:33N 35°25' W 121°53'8 7.9
2014-Nov-23 23:33N 35°32' W 121°58'8 8.4
2014-Nov-23 22:33N 35°39' W 122°02'9 8.6
2014-Nov-23 21:33N 35°47' W 122°07'9 8.6
2014-Nov-23 20:33N 35°54' W 122°12'9 8.6
2014-Nov-23 19:33N 36°02' W 122°17'8 8.3
2014-Nov-23 18:33N 36°10' W 122°21'8 8.2
2014-Nov-23 17:33N 36°17' W 122°25'8 8.0
2014-Nov-23 16:33N 36°24' W 122°30'8 8.2
2014-Nov-23 15:33N 36°31' W 122°35'8 7.8
2014-Nov-23 14:33N 36°38' W 122°40'9 8.7
2014-Nov-23 13:31N 36°46' W 122°45'8 8.8
2014-Nov-23 12:33N 36°54' W 122°49'10 9.2
2014-Nov-23 11:25N 37°03' W 122°55'8 9.3
2014-Nov-23 10:33N 37°10' W 122°59'9 8.7
2014-Nov-23 09:32N 37°18' W 123°04'9 8.8
2014-Nov-23 08:32N 37°26' W 123°09'9 8.2
2014-Nov-23 07:28N 37°34' W 123°04'11 8.4
2014-Nov-23 06:08N 37°40' W 122°52'5 8.2
2014-Nov-23 05:33N 37°43' W 122°47'8 8.2
2014-Nov-23 04:33N 37°46' W 122°37'8 8.0
2014-Nov-23 03:33N 37°49' W 122°28'6 5.9
2014-Nov-23 02:33N 37°55' W 122°26'1 1.0
2014-Nov-23 01:33N 37°55' W 122°24'0 0.1
2014-Nov-23 00:33N 37°55' W 122°25'0 0.0
2014-Nov-22 23:33N 37°55' W 122°25'0 0.0
2014-Nov-22 22:33N 37°55' W 122°25'0 0.0
2014-Nov-22 21:33N 37°55' W 122°25'0 0.0
2014-Nov-22 20:33N 37°55' W 122°25'0 0.0
2014-Nov-22 19:33N 37°55' W 122°25'0 0.0
2014-Nov-22 18:33N 37°55' W 122°25'0 0.0
2014-Nov-22 17:33N 37°55' W 122°25'0 0.0
2014-Nov-22 16:33N 37°55' W 122°25'0 0.0
2014-Nov-22 15:33N 37°55' W 122°25'0 0.0
2014-Nov-22 14:33N 37°55' W 122°25'0 0.0
2014-Nov-22 13:33N 37°55' W 122°25'0 0.0
2014-Nov-22 12:33N 37°55' W 122°25'0 0.0
2014-Nov-22 11:33N 37°55' W 122°25'0 0.0
2014-Nov-22 10:33N 37°55' W 122°25'0 0.0
2014-Nov-22 09:33N 37°55' W 122°25'0 0.0
2014-Nov-22 08:33N 37°55' W 122°25'0 0.0
2014-Nov-22 07:33N 37°55' W 122°25'0 0.0
2014-Nov-22 06:33N 37°55' W 122°25'0 0.0
2014-Nov-22 05:33N 37°55' W 122°25'0 0.0
2014-Nov-22 04:33N 37°55' W 122°25'0 0.3
2014-Nov-22 03:33N 37°55' W 122°25'1 1.1
2014-Nov-22 02:34N 37°55' W 122°26'6 5.9
2014-Nov-22 01:33N 37°49' W 122°27'8 7.8
2014-Nov-22 00:33N 37°46' W 122°36'8 8.0
2014-Nov-21 23:33N 37°42' W 122°45'7 7.0
2014-Nov-21 22:33N 37°38' W 122°52'8 8.1
2014-Nov-21 21:33N 37°33' W 123°00'28 9.0
2014-Nov-21 18:25N 37°06' W 122°53'56 9.3
2014-Nov-21 12:23N 36°14' W 122°27'8 9.3
2014-Nov-21 11:33N 36°07' W 122°23'12 9.3
2014-Nov-21 10:15N 35°57' W 122°14'217 8.4
2014-Nov-20 08:32N 33°49' W 118°40'9 9.2
2014-Nov-20 07:33N 33°52' W 118°30'3 3.1
2014-Nov-20 06:33N 33°55' W 118°27'0 0.0
2014-Nov-20 05:33N 33°55' W 118°27'0 0.0
2014-Nov-20 04:33N 33°55' W 118°27'0 0.0
2014-Nov-20 03:33N 33°55' W 118°27'0 0.0
2014-Nov-20 02:33N 33°55' W 118°27'0 0.0
2014-Nov-20 01:33N 33°55' W 118°27'0 0.0
2014-Nov-20 00:34N 33°55' W 118°27'0 0.0
2014-Nov-19 23:33N 33°55' W 118°27'0 0.0
2014-Nov-19 22:33N 33°55' W 118°27'0 0.1
2014-Nov-19 21:34N 33°55' W 118°27'6 5.3
2014-Nov-19 20:31N 33°50' W 118°30'7 6.6
2014-Nov-19 19:29N 33°44' W 118°26'9 9.5
2014-Nov-19 18:33N 33°39' W 118°17'7 6.8
2014-Nov-19 17:33N 33°44' W 118°11'2 1.2
2014-Nov-19 16:04N 33°44' W 118°13'0 0.0
2014-Nov-19 15:25N 33°44' W 118°13'0 0.0
2014-Nov-19 14:28N 33°44' W 118°13'0 0.0
2014-Nov-19 13:22N 33°44' W 118°13'0 0.0
2014-Nov-19 12:28N 33°44' W 118°13'0 0.0
2014-Nov-19 11:31N 33°44' W 118°13'0 0.0
2014-Nov-19 10:31N 33°44' W 118°13'0 0.0
2014-Nov-19 09:31N 33°44' W 118°13'0 0.0
2014-Nov-19 08:31N 33°44' W 118°13'0 0.1
2014-Nov-19 07:31N 33°44' W 118°13'0 0.1
2014-Nov-19 06:31N 33°44' W 118°13'0 0.0
2014-Nov-19 05:31N 33°44' W 118°13'0 0.1
2014-Nov-19 04:31N 33°44' W 118°13'0 0.0
2014-Nov-19 03:31N 33°44' W 118°13'0 0.0
2014-Nov-19 02:31N 33°44' W 118°13'0 0.1
2014-Nov-19 01:31N 33°44' W 118°13'0 0.0
2014-Nov-19 00:31N 33°44' W 118°13'0 0.0
2014-Nov-18 23:28N 33°44' W 118°13'0 0.0
2014-Nov-18 22:22N 33°44' W 118°13'0 0.0
2014-Nov-18 21:28N 33°44' W 118°13'0 0.0
2014-Nov-18 20:31N 33°44' W 118°13'0 0.1
2014-Nov-18 19:31N 33°44' W 118°13'0 0.0
2014-Nov-18 18:31N 33°44' W 118°13'0 0.0
2014-Nov-18 17:31N 33°44' W 118°13'0 0.0
2014-Nov-18 16:31N 33°44' W 118°13'0 0.0
2014-Nov-18 15:31N 33°44' W 118°13'0 0.0
2014-Nov-18 14:31N 33°44' W 118°13'0 0.0
2014-Nov-18 13:31N 33°44' W 118°13'0 0.0
2014-Nov-18 12:31N 33°44' W 118°13'0 0.0
2014-Nov-18 11:31N 33°44' W 118°13'0 0.0
2014-Nov-18 10:31N 33°44' W 118°13'0 0.0
2014-Nov-18 09:31N 33°44' W 118°13'0 0.0
2014-Nov-18 08:31N 33°44' W 118°13'0 0.0
2014-Nov-18 07:31N 33°44' W 118°13'0 0.0
2014-Nov-18 06:31N 33°44' W 118°13'0 0.0
2014-Nov-18 05:31N 33°44' W 118°13'0 0.0
2014-Nov-18 04:31N 33°44' W 118°13'0 0.1
2014-Nov-18 03:31N 33°44' W 118°13'0 0.0
2014-Nov-18 02:31N 33°44' W 118°13'0 0.0
2014-Nov-18 01:31N 33°44' W 118°13'0 0.0
2014-Nov-18 00:28N 33°44' W 118°13'0 0.0
2014-Nov-17 23:28N 33°44' W 118°13'0 0.2
2014-Nov-17 21:33N 33°44' W 118°13'6 5.6
2014-Nov-17 20:33N 33°39' W 118°15'9 8.5
2014-Nov-17 19:33N 33°42' W 118°24'  

Dump ship's entire track history